createdAt,value
2022-08-03T00:00:24.292Z,3.38
2022-08-03T00:02:50.921Z,3.28
2022-08-03T00:05:17.611Z,3.63
2022-08-03T00:07:43.992Z,3.63
2022-08-03T00:10:12.484Z,3.55
2022-08-03T00:12:39.067Z,3.40
2022-08-03T00:15:11.514Z,3.67
2022-08-03T00:17:52.472Z,3.55
2022-08-03T00:20:21.377Z,4.00
2022-08-03T00:22:48.005Z,3.63
2022-08-03T00:25:14.592Z,3.50
2022-08-03T00:27:41.061Z,4.03
2022-08-03T00:30:08.295Z,2.85
2022-08-03T00:32:34.680Z,3.60
2022-08-03T00:35:01.137Z,3.65
2022-08-03T00:37:40.814Z,4.03
2022-08-03T00:40:12.865Z,4.05
2022-08-03T00:42:54.514Z,3.67
2022-08-03T00:45:22.998Z,3.92
2022-08-03T00:47:50.268Z,3.58
2022-08-03T00:50:18.854Z,3.60
2022-08-03T00:52:46.691Z,3.47
2022-08-03T00:55:13.314Z,3.80
2022-08-03T00:57:40.272Z,4.03
2022-08-03T01:00:08.652Z,4.00
2022-08-03T01:02:35.751Z,3.80
2022-08-03T01:05:02.151Z,4.15
2022-08-03T01:07:44.866Z,4.10
2022-08-03T01:10:32.076Z,4.03
2022-08-03T01:14:03.716Z,3.42
2022-08-03T01:16:15.701Z,3.78
2022-08-03T01:18:52.522Z,4.25
2022-08-03T01:21:59.636Z,3.83
2022-08-03T01:24:52.911Z,4.22
2022-08-03T01:27:23.068Z,3.42
2022-08-03T01:30:01.547Z,4.10
2022-08-03T01:32:58.849Z,3.35
2022-08-03T01:35:29.228Z,3.78
2022-08-03T01:38:03.332Z,3.88
2022-08-03T01:40:34.237Z,4.15
2022-08-03T01:43:04.261Z,3.88
2022-08-03T01:45:33.986Z,3.67
2022-08-03T01:48:02.421Z,3.30
2022-08-03T01:50:32.300Z,3.42
2022-08-03T01:52:59.665Z,3.45
2022-08-03T01:55:28.205Z,3.55
2022-08-03T01:58:05.518Z,3.67
2022-08-03T02:00:35.373Z,3.45
2022-08-03T02:03:04.794Z,3.35
2022-08-03T02:05:32.313Z,3.90
2022-08-03T02:08:00.661Z,3.50
2022-08-03T02:10:34.278Z,3.60
2022-08-03T02:13:05.037Z,3.70
2022-08-03T02:15:33.803Z,3.65
2022-08-03T02:18:03.111Z,3.30
2022-08-03T02:20:33.062Z,3.72
2022-08-03T02:22:59.544Z,3.72
2022-08-03T02:25:26.156Z,3.80
2022-08-03T02:27:56.512Z,3.58
2022-08-03T02:30:30.924Z,3.63
2022-08-03T02:32:58.438Z,3.35
2022-08-03T02:35:29.381Z,3.65
2022-08-03T02:38:02.225Z,3.65
2022-08-03T02:40:30.085Z,3.55
2022-08-03T02:43:01.240Z,3.60
2022-08-03T02:45:29.616Z,3.70
2022-08-03T02:48:00.067Z,3.60
2022-08-03T02:50:28.017Z,3.80
2022-08-03T02:52:55.987Z,3.75
2022-08-03T02:55:25.839Z,4.22
2022-08-03T02:57:52.962Z,3.78
2022-08-03T03:00:28.059Z,4.03
2022-08-03T03:02:58.424Z,4.10
2022-08-03T03:05:51.816Z,3.90
2022-08-03T03:08:17.732Z,4.22
2022-08-03T03:10:46.140Z,3.70
2022-08-03T03:13:15.060Z,3.90
2022-08-03T03:15:43.363Z,3.90
2022-08-03T03:18:10.703Z,3.88
2022-08-03T03:20:38.953Z,3.95
2022-08-03T03:23:06.042Z,3.53
2022-08-03T03:25:33.247Z,5.20
2022-08-03T03:28:01.010Z,4.05
2022-08-03T03:30:27.924Z,4.10
2022-08-03T03:32:55.057Z,4.40
2022-08-03T03:35:21.890Z,4.15
2022-08-03T03:37:48.442Z,4.13
2022-08-03T03:40:15.004Z,3.97
2022-08-03T03:42:41.901Z,4.85
2022-08-03T03:45:09.077Z,4.35
2022-08-03T03:47:35.910Z,4.53
2022-08-03T03:50:04.140Z,4.60
2022-08-03T03:52:31.748Z,4.38
2022-08-03T03:55:01.035Z,4.55
2022-08-03T03:57:28.540Z,4.40
2022-08-03T03:59:55.137Z,4.45
2022-08-03T04:02:21.756Z,3.80
2022-08-03T04:05:06.933Z,4.22
2022-08-03T04:08:04.030Z,4.60
2022-08-03T04:10:52.236Z,4.43
2022-08-03T04:13:21.635Z,4.82
2022-08-03T04:15:49.111Z,3.83
2022-08-03T04:18:17.305Z,4.43
2022-08-03T04:20:48.729Z,4.10
2022-08-03T04:23:21.008Z,4.53
2022-08-03T04:25:50.440Z,4.93
2022-08-03T04:28:30.468Z,4.95
2022-08-03T04:31:01.204Z,4.85
2022-08-03T04:33:31.271Z,4.88
2022-08-03T04:36:03.419Z,4.82
2022-08-03T04:38:32.721Z,4.25
2022-08-03T04:41:00.950Z,4.75
2022-08-03T04:43:32.691Z,4.85
2022-08-03T04:46:00.114Z,4.30
2022-08-03T04:48:27.303Z,5.20
2022-08-03T04:50:54.476Z,4.53
2022-08-03T04:53:21.218Z,5.30
2022-08-03T04:55:48.167Z,5.00
2022-08-03T04:58:14.582Z,5.15
2022-08-03T05:00:41.025Z,5.07
2022-08-03T05:03:20.037Z,4.72
2022-08-03T05:05:52.149Z,4.95
2022-08-03T05:08:20.552Z,4.90
2022-08-03T05:10:54.739Z,4.97
2022-08-03T05:13:21.370Z,4.95
2022-08-03T05:15:47.837Z,5.00
2022-08-03T05:18:14.575Z,4.35
2022-08-03T05:20:41.484Z,5.93
2022-08-03T05:23:07.931Z,5.43
2022-08-03T05:25:34.528Z,5.15
2022-08-03T05:28:01.409Z,5.38
2022-08-03T05:30:33.220Z,5.70
2022-08-03T05:33:00.451Z,5.70
2022-08-03T05:36:01.413Z,5.57
2022-08-03T05:38:15.319Z,5.55
2022-08-03T05:40:57.477Z,5.75
2022-08-03T05:43:37.161Z,6.07
2022-08-03T05:46:12.858Z,5.82
2022-08-03T05:48:40.267Z,5.65
2022-08-03T05:51:07.719Z,5.80
2022-08-03T05:53:34.764Z,5.63
2022-08-03T05:56:03.573Z,6.25
2022-08-03T05:58:42.621Z,5.35
2022-08-03T06:01:09.168Z,5.35
2022-08-03T06:03:35.694Z,5.63
2022-08-03T06:06:02.295Z,6.25
2022-08-03T06:08:28.812Z,5.40
2022-08-03T06:10:55.311Z,5.82
2022-08-03T06:13:22.002Z,5.97
2022-08-03T06:15:48.632Z,5.65
2022-08-03T06:18:15.098Z,6.28
2022-08-03T06:20:41.494Z,5.40
2022-08-03T06:23:08.160Z,6.20
2022-08-03T06:25:43.012Z,6.10
2022-08-03T06:28:19.139Z,5.57
2022-08-03T06:30:55.592Z,6.45
2022-08-03T06:33:22.150Z,5.28
2022-08-03T06:35:48.653Z,5.38
2022-08-03T06:38:15.127Z,5.30
2022-08-03T06:40:41.968Z,5.38
2022-08-03T06:43:12.519Z,5.32
2022-08-03T06:45:39.424Z,4.60
2022-08-03T06:48:08.382Z,5.22
2022-08-03T06:50:36.319Z,5.93
2022-08-03T06:53:04.379Z,5.38
2022-08-03T06:55:32.239Z,5.07
2022-08-03T06:57:59.947Z,4.82
2022-08-03T07:00:31.219Z,5.00
2022-08-03T07:02:58.371Z,5.65
2022-08-03T07:05:25.693Z,4.32
2022-08-03T07:07:56.534Z,4.60
2022-08-03T07:10:23.423Z,4.30
2022-08-03T07:12:55.566Z,4.15
2022-08-03T07:15:38.397Z,4.15
2022-08-03T07:18:10.067Z,4.28
2022-08-03T07:20:36.656Z,3.83
2022-08-03T07:23:03.345Z,3.60
2022-08-03T07:25:29.878Z,3.58
2022-08-03T07:27:56.374Z,4.13
2022-08-03T07:30:23.421Z,3.70
2022-08-03T07:32:50.649Z,3.45
2022-08-03T07:35:24.421Z,3.70
2022-08-03T07:37:54.217Z,3.40
2022-08-03T07:40:22.426Z,3.17
2022-08-03T07:42:52.123Z,3.40
2022-08-03T07:45:23.172Z,3.28
2022-08-03T07:47:53.145Z,3.50
2022-08-03T07:50:20.573Z,3.60
2022-08-03T07:52:50.773Z,3.50
2022-08-03T07:55:20.218Z,3.20
2022-08-03T07:57:47.002Z,3.10
2022-08-03T08:00:17.178Z,3.22
2022-08-03T08:02:44.281Z,3.00
2022-08-03T08:05:11.257Z,3.05
2022-08-03T08:07:38.924Z,2.80
2022-08-03T08:10:08.143Z,3.08
2022-08-03T08:12:34.736Z,2.65
2022-08-03T08:15:01.940Z,3.30
2022-08-03T08:17:28.506Z,3.00
2022-08-03T08:19:54.964Z,3.65
2022-08-03T08:22:29.786Z,3.10
2022-08-03T08:24:58.251Z,2.70
2022-08-03T08:27:24.764Z,2.25
2022-08-03T08:29:55.147Z,2.50
2022-08-03T08:32:23.415Z,2.50
2022-08-03T08:34:50.092Z,2.10
2022-08-03T08:37:16.800Z,1.90
2022-08-03T08:39:43.239Z,1.60
2022-08-03T08:42:10.207Z,1.92
2022-08-03T08:44:36.743Z,2.10
2022-08-03T08:47:03.912Z,1.85
2022-08-03T08:49:32.883Z,2.05
2022-08-03T08:52:01.637Z,1.70
2022-08-03T08:54:30.955Z,1.92
2022-08-03T08:57:02.215Z,2.20
2022-08-03T08:59:48.394Z,2.13
2022-08-03T09:02:16.569Z,1.92
2022-08-03T09:04:45.484Z,1.77
2022-08-03T09:07:20.045Z,2.45
2022-08-03T09:10:11.182Z,1.98
2022-08-03T09:12:41.982Z,2.30
2022-08-03T09:16:00.671Z,2.30
2022-08-03T09:18:33.019Z,2.30
2022-08-03T09:21:38.051Z,1.98
2022-08-03T09:24:12.991Z,2.13
2022-08-03T09:26:50.248Z,1.60
2022-08-03T09:29:20.550Z,1.95
2022-08-03T09:31:47.292Z,2.10
2022-08-03T09:34:17.995Z,1.95
2022-08-03T09:36:47.063Z,1.80
2022-08-03T09:39:15.588Z,2.20
2022-08-03T09:41:44.556Z,2.42
2022-08-03T09:44:24.367Z,2.38
2022-08-03T09:46:56.528Z,1.95
2022-08-03T09:49:23.811Z,1.80
2022-08-03T09:52:32.008Z,1.55
2022-08-03T09:54:37.194Z,1.65
2022-08-03T09:57:03.732Z,1.90
2022-08-03T09:59:32.063Z,1.90
2022-08-03T10:02:00.404Z,1.83
2022-08-03T10:04:27.719Z,1.85
2022-08-03T10:07:09.312Z,1.85
2022-08-03T10:09:37.440Z,2.10
2022-08-03T10:12:12.208Z,1.75
2022-08-03T10:14:40.514Z,1.80
2022-08-03T10:17:07.079Z,2.35
2022-08-03T10:19:34.014Z,1.92
2022-08-03T10:22:15.839Z,1.95
2022-08-03T10:24:59.220Z,2.00
2022-08-03T10:27:32.042Z,1.90
2022-08-03T10:30:03.671Z,1.70
2022-08-03T10:32:42.383Z,1.55
2022-08-03T10:35:19.550Z,1.83
2022-08-03T10:38:01.808Z,1.63
2022-08-03T10:40:49.602Z,1.75
2022-08-03T10:43:21.648Z,1.60
2022-08-03T10:45:48.989Z,1.77
2022-08-03T10:48:17.848Z,1.60
2022-08-03T10:50:44.956Z,1.58
2022-08-03T10:53:11.672Z,1.77
2022-08-03T10:56:05.629Z,1.60
2022-08-03T10:58:38.187Z,1.40
2022-08-03T11:01:58.962Z,1.50
2022-08-03T11:04:29.222Z,1.50
2022-08-03T11:07:22.823Z,1.40
2022-08-03T11:09:56.489Z,1.60
2022-08-03T11:12:30.393Z,1.35
2022-08-03T11:15:01.219Z,1.50
2022-08-03T11:17:27.949Z,1.40
2022-08-03T11:19:57.785Z,1.38
2022-08-03T11:22:25.748Z,1.40
2022-08-03T11:24:54.291Z,1.90
2022-08-03T11:27:23.236Z,1.23
2022-08-03T11:30:11.266Z,1.60
2022-08-03T11:32:37.609Z,1.23
2022-08-03T11:35:21.643Z,1.55
2022-08-03T11:38:01.508Z,1.33
2022-08-03T11:40:52.904Z,1.27
2022-08-03T11:43:22.671Z,1.27
2022-08-03T11:46:03.694Z,1.70
2022-08-03T11:48:37.368Z,1.10
2022-08-03T11:51:18.763Z,1.38
2022-08-03T11:53:47.718Z,1.30
2022-08-03T11:56:14.252Z,1.67
2022-08-03T11:59:00.985Z,1.50
2022-08-03T12:01:40.353Z,1.25
2022-08-03T12:04:08.011Z,1.40
2022-08-03T12:06:54.419Z,1.45
2022-08-03T12:09:21.442Z,1.23
2022-08-03T12:11:59.824Z,1.17
2022-08-03T12:14:50.625Z,1.20
2022-08-03T12:17:16.203Z,1.20
2022-08-03T12:19:43.798Z,1.35
2022-08-03T12:22:10.229Z,1.00
2022-08-03T12:24:46.806Z,1.10
2022-08-03T12:27:26.422Z,1.05
2022-08-03T12:29:58.965Z,1.40
2022-08-03T12:32:27.170Z,1.33
2022-08-03T12:34:53.657Z,0.90
2022-08-03T12:37:22.777Z,1.17
2022-08-03T12:40:00.429Z,1.20
2022-08-03T12:42:36.544Z,1.33
2022-08-03T12:45:27.380Z,1.35
2022-08-03T12:47:56.626Z,1.02
2022-08-03T12:50:34.236Z,1.27
2022-08-03T12:53:03.878Z,1.15
2022-08-03T12:55:57.802Z,1.17
2022-08-03T12:58:38.132Z,1.45
2022-08-03T13:01:09.133Z,1.38
2022-08-03T13:03:42.276Z,1.45
2022-08-03T13:06:14.649Z,1.17
2022-08-03T13:08:42.782Z,1.55
2022-08-03T13:11:43.481Z,1.48
2022-08-03T13:14:13.607Z,1.35
2022-08-03T13:16:46.410Z,1.63
2022-08-03T13:19:15.687Z,1.30
2022-08-03T13:21:53.523Z,1.70
2022-08-03T13:24:30.418Z,1.52
2022-08-03T13:26:57.774Z,1.10
2022-08-03T13:29:24.202Z,1.58
2022-08-03T13:31:51.448Z,1.60
2022-08-03T13:34:22.965Z,1.40
2022-08-03T13:37:08.413Z,1.92
2022-08-03T13:39:57.598Z,1.48
2022-08-03T13:42:22.852Z,1.88
2022-08-03T13:44:49.341Z,1.70
2022-08-03T13:47:16.249Z,1.70
2022-08-03T13:49:42.889Z,1.60
2022-08-03T13:52:26.000Z,1.90
2022-08-03T13:54:52.466Z,2.15
2022-08-03T13:58:02.873Z,1.70
2022-08-03T14:00:06.593Z,1.65
2022-08-03T14:02:33.105Z,1.40
2022-08-03T14:04:59.587Z,1.75
2022-08-03T14:07:26.166Z,1.50
2022-08-03T14:09:52.753Z,1.30
2022-08-03T14:12:19.161Z,1.38
2022-08-03T14:14:45.725Z,1.77
2022-08-03T14:17:12.972Z,1.80
2022-08-03T14:19:52.443Z,1.60
2022-08-03T14:22:24.293Z,1.58
2022-08-03T14:24:51.001Z,1.40
2022-08-03T14:27:18.088Z,1.60
2022-08-03T14:29:44.688Z,1.65
2022-08-03T14:32:13.550Z,1.52
2022-08-03T14:34:40.868Z,1.52
2022-08-03T14:37:07.559Z,1.50
2022-08-03T14:42:20.699Z,1.70
2022-08-03T14:44:47.578Z,1.75
2022-08-03T14:47:14.721Z,1.60
2022-08-03T14:50:37.374Z,1.70
2022-08-03T14:52:28.150Z,1.50
2022-08-03T14:54:54.615Z,1.60
2022-08-03T14:57:21.563Z,1.83
2022-08-03T14:59:56.235Z,1.67
2022-08-03T15:02:24.527Z,1.80
2022-08-03T15:04:51.681Z,2.10
2022-08-03T15:07:18.586Z,1.58
2022-08-03T15:09:45.140Z,1.77
2022-08-03T15:12:11.870Z,1.52
2022-08-03T15:14:38.307Z,1.80
2022-08-03T15:17:05.406Z,1.42
2022-08-03T15:20:01.682Z,2.10
2022-08-03T15:22:20.466Z,2.10
2022-08-03T15:24:47.530Z,1.90
2022-08-03T15:27:13.942Z,2.30
2022-08-03T15:30:08.093Z,1.88
2022-08-03T15:32:27.221Z,2.15
2022-08-03T15:34:55.301Z,1.80
2022-08-03T15:37:21.831Z,1.90
2022-08-03T15:39:59.862Z,1.83
2022-08-03T15:42:29.185Z,1.45
2022-08-03T15:44:55.910Z,1.65
2022-08-03T15:47:22.653Z,1.52
2022-08-03T15:49:49.414Z,1.65
2022-08-03T15:52:15.979Z,1.65
2022-08-03T15:54:42.426Z,1.90
2022-08-03T15:57:08.873Z,2.03
2022-08-03T15:59:35.301Z,2.00
2022-08-03T16:02:01.893Z,1.90
2022-08-03T16:04:28.614Z,1.98
2022-08-03T16:06:55.050Z,1.77
2022-08-03T16:09:24.279Z,1.90
2022-08-03T16:12:14.417Z,1.92
2022-08-03T16:14:51.869Z,1.90
2022-08-03T16:17:20.346Z,2.10
2022-08-03T16:19:47.102Z,2.10
2022-08-03T16:22:14.450Z,1.90
2022-08-03T16:24:41.245Z,2.15
2022-08-03T16:27:17.632Z,2.10
2022-08-03T16:29:54.880Z,1.73
2022-08-03T16:32:21.375Z,1.60
2022-08-03T16:34:48.131Z,2.10
2022-08-03T16:37:37.527Z,2.10
2022-08-03T16:40:02.677Z,1.92
2022-08-03T16:42:29.377Z,1.50
2022-08-03T16:44:55.857Z,2.05
2022-08-03T16:47:22.947Z,1.05
2022-08-03T16:49:53.101Z,1.92
2022-08-03T16:52:22.869Z,1.63
2022-08-03T16:54:53.224Z,1.80
2022-08-03T16:57:56.280Z,1.58
2022-08-03T17:00:12.534Z,2.20
2022-08-03T17:03:00.626Z,1.90
2022-08-03T17:05:28.888Z,2.25
2022-08-03T17:08:12.708Z,1.67
2022-08-03T17:10:42.347Z,1.95
2022-08-03T17:13:12.985Z,1.48
2022-08-03T17:16:01.550Z,2.30
2022-08-03T17:18:37.673Z,2.08
2022-08-03T17:21:09.459Z,1.65
2022-08-03T17:23:46.326Z,1.80
2022-08-03T17:26:21.182Z,1.85
2022-08-03T17:28:57.904Z,2.35
2022-08-03T17:31:31.153Z,1.55
2022-08-03T17:34:01.193Z,2.08
2022-08-03T17:36:54.021Z,2.00
2022-08-03T17:39:19.321Z,2.20
2022-08-03T17:41:55.392Z,1.73
2022-08-03T17:44:33.202Z,1.60
2022-08-03T17:47:08.729Z,1.80
2022-08-03T17:49:40.097Z,1.80
2022-08-03T17:52:28.577Z,2.40
2022-08-03T17:55:57.093Z,2.63
2022-08-03T17:58:11.569Z,2.75
2022-08-03T18:00:59.497Z,2.20
2022-08-03T18:03:57.820Z,1.90
2022-08-03T18:06:31.187Z,2.00
2022-08-03T18:08:59.957Z,2.20
2022-08-03T18:11:35.687Z,1.90
2022-08-03T18:14:26.961Z,1.80
2022-08-03T18:17:00.509Z,2.60
2022-08-03T18:20:02.903Z,2.47
2022-08-03T18:22:20.994Z,2.40
2022-08-03T18:24:51.998Z,3.40
2022-08-03T18:27:20.526Z,2.63
2022-08-03T18:29:49.380Z,2.40
2022-08-03T18:32:16.886Z,2.70
2022-08-03T18:34:53.116Z,1.98
2022-08-03T18:37:25.182Z,2.10
2022-08-03T18:39:55.439Z,2.55
2022-08-03T18:42:26.270Z,2.38
2022-08-03T18:44:56.211Z,2.53
2022-08-03T18:47:53.149Z,2.28
2022-08-03T18:50:29.378Z,2.30
2022-08-03T18:53:19.783Z,2.28
2022-08-03T18:56:02.391Z,2.22
2022-08-03T18:58:47.740Z,2.75
2022-08-03T19:02:01.045Z,2.50
2022-08-03T19:04:41.423Z,2.47
2022-08-03T19:07:16.586Z,2.22
2022-08-03T19:10:15.763Z,2.67
2022-08-03T19:12:45.474Z,2.17
2022-08-03T19:15:15.731Z,2.30
2022-08-03T19:17:53.159Z,1.98
2022-08-03T19:20:30.723Z,2.40
2022-08-03T19:22:59.101Z,2.40
2022-08-03T19:25:33.359Z,1.95
2022-08-03T19:28:04.205Z,2.33
2022-08-03T19:30:39.028Z,2.08
2022-08-03T19:33:09.159Z,2.33
2022-08-03T19:35:52.159Z,2.38
2022-08-03T19:38:28.238Z,2.17
2022-08-03T19:40:58.121Z,2.25
2022-08-03T19:43:53.836Z,2.47
2022-08-03T19:46:21.875Z,2.10
2022-08-03T19:49:02.956Z,2.33
2022-08-03T19:52:00.839Z,2.40
2022-08-03T19:54:29.656Z,2.33
2022-08-03T19:57:00.235Z,2.10
2022-08-03T19:59:29.407Z,2.45
2022-08-03T20:01:55.780Z,2.50
2022-08-03T20:04:26.334Z,2.30
2022-08-03T20:06:56.942Z,2.13
2022-08-03T20:09:23.882Z,2.42
2022-08-03T20:11:57.197Z,3.05
2022-08-03T20:14:26.621Z,2.28
2022-08-03T20:16:53.552Z,2.72
2022-08-03T20:19:20.159Z,2.10
2022-08-03T20:21:49.879Z,3.00
2022-08-03T20:24:24.216Z,2.28
2022-08-03T20:26:53.549Z,2.03
2022-08-03T20:30:05.329Z,2.50
2022-08-03T20:32:18.681Z,2.50
2022-08-03T20:34:50.973Z,2.45
2022-08-03T20:37:19.551Z,2.60
2022-08-03T20:39:48.201Z,2.50
2022-08-03T20:42:21.112Z,2.65
2022-08-03T20:45:06.196Z,2.22
2022-08-03T20:47:36.100Z,2.20
2022-08-03T20:50:04.416Z,2.80
2022-08-03T20:52:37.120Z,2.97
2022-08-03T20:55:16.837Z,2.75
2022-08-03T20:57:43.518Z,2.83
2022-08-03T21:00:19.464Z,2.70
2022-08-03T21:02:48.945Z,2.60
2022-08-03T21:05:15.499Z,3.25
2022-08-03T21:08:05.189Z,2.53
2022-08-03T21:10:33.832Z,3.42
2022-08-03T21:13:18.244Z,3.03
2022-08-03T21:16:11.482Z,3.08
2022-08-03T21:18:44.450Z,2.83
2022-08-03T21:21:15.256Z,2.25
2022-08-03T21:23:48.576Z,2.92
2022-08-03T21:26:18.034Z,3.58
2022-08-03T21:28:46.971Z,3.28
2022-08-03T21:31:13.881Z,2.92
2022-08-03T21:33:40.979Z,3.22
2022-08-03T21:36:14.411Z,2.97
2022-08-03T21:38:43.776Z,2.90
2022-08-03T21:41:14.078Z,3.35
2022-08-03T21:43:40.591Z,3.05
2022-08-03T21:46:07.830Z,3.15
2022-08-03T21:48:38.447Z,2.90
2022-08-03T21:51:06.809Z,2.90
2022-08-03T21:54:02.612Z,2.67
2022-08-03T21:56:22.488Z,2.65
2022-08-03T21:59:06.051Z,2.47
2022-08-03T22:01:35.581Z,2.50
2022-08-03T22:04:06.930Z,2.67
2022-08-03T22:06:33.933Z,2.78
2022-08-03T22:09:01.087Z,2.78
2022-08-03T22:11:28.674Z,2.70
2022-08-03T22:13:55.269Z,2.28
2022-08-03T22:16:22.098Z,2.30
2022-08-03T22:18:48.706Z,2.85
2022-08-03T22:21:17.036Z,2.08
2022-08-03T22:23:59.013Z,2.85
2022-08-03T22:26:32.480Z,2.97
2022-08-03T22:29:06.854Z,2.28
2022-08-03T22:31:59.017Z,2.45
2022-08-03T22:34:26.404Z,2.60
2022-08-03T22:36:57.195Z,2.75
2022-08-03T22:39:28.388Z,2.28
2022-08-03T22:41:57.762Z,2.17
2022-08-03T22:44:25.496Z,3.00
2022-08-03T22:46:52.279Z,2.47
2022-08-03T22:49:19.493Z,2.35
2022-08-03T22:51:46.043Z,2.38
2022-08-03T22:54:12.560Z,2.50
2022-08-03T22:56:39.158Z,2.63
2022-08-03T22:59:39.932Z,3.08
2022-08-03T23:01:59.911Z,2.20
2022-08-03T23:04:28.477Z,2.47
2022-08-03T23:06:57.653Z,2.88
2022-08-03T23:09:24.597Z,1.90
2022-08-03T23:11:55.184Z,2.70
2022-08-03T23:14:23.161Z,2.25
2022-08-03T23:16:53.340Z,2.45
2022-08-03T23:19:25.549Z,2.67
2022-08-03T23:22:02.944Z,2.78
2022-08-03T23:24:34.032Z,2.08
2022-08-03T23:27:02.967Z,1.88
2022-08-03T23:29:31.461Z,2.00
2022-08-03T23:31:59.529Z,1.90
2022-08-03T23:34:46.741Z,2.35
2022-08-03T23:37:15.329Z,2.90
2022-08-03T23:39:45.053Z,2.20
2022-08-03T23:42:14.904Z,2.35
2022-08-03T23:44:43.740Z,2.65
2022-08-03T23:47:11.319Z,2.47
2022-08-03T23:49:37.941Z,2.30
2022-08-03T23:52:15.555Z,2.42
2022-08-03T23:54:58.619Z,2.67
2022-08-03T23:57:37.782Z,2.63
